Coastal Guardian — MQJT3 — position and weather

sailwx.info

Track history (hours):
 
Tides and Currents Weather Stations Pressure Air Temp Water Temp Dewpoint Dewpoint Depression Visibility Wind Speed Wind Dir Waves Ship Positions

Oceanographic research ship Coastal Guardian (UK)

Detailed information on ship capabilities available from University of Delaware's Ocean Information Center.

Last reported at 2017-Dec-21 22:45 UTC. Time now 2018-Feb-25 06:15 UTC.
Position N 55°57' W 004°55'.
Warning: this ship's position is months out of date.

Length 16 m.

Type: Other ship. MMSI: 235087897.

Date/timePositionNaut miles runAvg speedWind from/ knotsBaromVisibWave heightAir tempDewpointWater temp
2017-Dec-21 22:45N 55°57' W 004°55'0 1.9
2017-Dec-21 22:30N 55°56' W 004°55'4 7.2
2017-Dec-21 22:00N 55°53' W 004°56'4 7.2
2017-Dec-21 21:30N 55°49' W 004°57'60 7.8
2017-Dec-21 13:44N 54°51' W 005°22'2 8.0
2017-Dec-21 13:30N 54°49' W 005°23'4 7.5
2017-Dec-21 13:00N 54°46' W 005°26'4 7.7
2017-Dec-21 12:30N 54°42' W 005°24'4 7.1
2017-Dec-21 12:01N 54°39' W 005°22'4 7.3
2017-Dec-21 11:30N 54°35' W 005°20'4 6.7
2017-Dec-21 10:56N 54°32' W 005°17'4 6.7
2017-Dec-21 10:23N 54°28' W 005°16'264 6.2
2017-Dec-19 15:43N 50°05' W 004°45'2 7.1
2017-Dec-19 15:28N 50°06' W 004°43'5 7.3
2017-Dec-19 14:49N 50°09' W 004°37'14 7.8
2017-Dec-19 12:59N 50°17' W 004°18'4 8.6
2017-Dec-19 12:28N 50°18' W 004°12'3 7.1
2017-Dec-19 12:00N 50°21' W 004°09'1 2.2
2017-Dec-19 11:27N 50°22' W 004°10'0 0.0
2017-Dec-19 11:00N 50°22' W 004°10'0 0.0
2017-Dec-19 10:30N 50°22' W 004°10'0 0.0
2017-Dec-19 10:00N 50°22' W 004°10'0 0.0
2017-Dec-19 09:30N 50°22' W 004°10'0 0.0
2017-Dec-19 09:00N 50°22' W 004°10'0 0.0
2017-Dec-19 08:30N 50°22' W 004°10'0 0.0
2017-Dec-19 08:00N 50°22' W 004°10'0 0.0
2017-Dec-19 07:30N 50°22' W 004°10'0 0.0
2017-Dec-19 07:00N 50°22' W 004°10'0 0.0
2017-Dec-19 06:30N 50°22' W 004°10'0 0.0
2017-Dec-19 06:00N 50°22' W 004°10'0 0.0
2017-Dec-19 05:30N 50°22' W 004°10'0 0.0
2017-Dec-19 05:00N 50°22' W 004°10'0 0.0
2017-Dec-19 04:30N 50°22' W 004°10'0 0.0
2017-Dec-19 04:00N 50°22' W 004°10'0 0.0
2017-Dec-19 03:30N 50°22' W 004°10'0 0.0
2017-Dec-19 03:00N 50°22' W 004°10'0 0.0
2017-Dec-19 02:30N 50°22' W 004°10'0 0.0
2017-Dec-19 02:00N 50°22' W 004°10'0 0.0
2017-Dec-19 01:30N 50°22' W 004°10'0 0.0
2017-Dec-19 00:54N 50°22' W 004°10'0 0.0
2017-Dec-19 00:30N 50°22' W 004°10'0 0.0
2017-Dec-19 00:00N 50°22' W 004°10'0 0.0
2017-Dec-18 23:30N 50°22' W 004°10'0 0.0
2017-Dec-18 23:00N 50°22' W 004°10'0 0.0
2017-Dec-18 22:30N 50°22' W 004°10'0 0.0
2017-Dec-18 22:00N 50°22' W 004°10'0 0.0
2017-Dec-18 21:30N 50°22' W 004°10'0 0.0
2017-Dec-18 21:00N 50°22' W 004°10'0 0.0
2017-Dec-18 20:30N 50°22' W 004°10'0 0.0
2017-Dec-18 20:00N 50°22' W 004°10'0 0.0
2017-Dec-18 19:30N 50°22' W 004°10'0 0.3
2017-Dec-18 19:00N 50°22' W 004°10'0 0.0
2017-Dec-18 18:30N 50°22' W 004°10'0 0.0
2017-Dec-18 18:00N 50°22' W 004°10'0 0.0
2017-Dec-18 17:30N 50°22' W 004°10'0 0.1
2017-Dec-18 17:00N 50°22' W 004°10'1 1.0
2017-Dec-18 16:29N 50°22' W 004°11'0 0.0
2017-Dec-18 15:59N 50°22' W 004°11'0 0.0
2017-Dec-18 15:29N 50°22' W 004°11'0 0.0
2017-Dec-18 14:59N 50°22' W 004°11'0 0.0
2017-Dec-18 14:29N 50°22' W 004°11'0 0.0
2017-Dec-18 13:59N 50°22' W 004°11'0 0.0
2017-Dec-18 13:29N 50°22' W 004°11'0 0.0
2017-Dec-18 12:59N 50°22' W 004°11'0 0.0
2017-Dec-18 12:29N 50°22' W 004°11'0 0.0
2017-Dec-18 11:59N 50°22' W 004°11'0 0.0
2017-Dec-18 11:29N 50°22' W 004°11'0 0.0
2017-Dec-18 10:59N 50°22' W 004°11'0 0.0
2017-Dec-18 10:29N 50°22' W 004°11'0 0.0
2017-Dec-18 09:59N 50°22' W 004°11'0 0.0
2017-Dec-18 09:29N 50°22' W 004°11'0 0.0
2017-Dec-18 08:59N 50°22' W 004°11'0 0.0
2017-Dec-18 08:29N 50°22' W 004°11'0 0.0
2017-Dec-18 07:59N 50°22' W 004°11'  
Track history (hours):
 
Tides and Currents Weather Stations Pressure Air Temp Water Temp Dewpoint Dewpoint Depression Visibility Wind Speed Wind Dir Waves Ship Positions

Oceanographic research ship Coastal Guardian (UK)

Detailed information on ship capabilities available from University of Delaware's Ocean Information Center.

Last reported at 2017-Dec-21 22:45 UTC. Time now 2018-Feb-25 06:15 UTC.
Position N 55°57' W 004°55'.
Warning: this ship's position is months out of date.

Length 16 m.

Type: Other ship. MMSI: 235087897.

Date/timePositionNaut miles runAvg speedWind from/ knotsBaromVisibWave heightAir tempDewpointWater temp
2017-Dec-21 22:45N 55°57' W 004°55'0 1.9
2017-Dec-21 22:30N 55°56' W 004°55'4 7.2
2017-Dec-21 22:00N 55°53' W 004°56'4 7.2
2017-Dec-21 21:30N 55°49' W 004°57'60 7.8
2017-Dec-21 13:44N 54°51' W 005°22'2 8.0
2017-Dec-21 13:30N 54°49' W 005°23'4 7.5
2017-Dec-21 13:00N 54°46' W 005°26'4 7.7
2017-Dec-21 12:30N 54°42' W 005°24'4 7.1
2017-Dec-21 12:01N 54°39' W 005°22'4 7.3
2017-Dec-21 11:30N 54°35' W 005°20'4 6.7
2017-Dec-21 10:56N 54°32' W 005°17'4 6.7
2017-Dec-21 10:23N 54°28' W 005°16'264 6.2
2017-Dec-19 15:43N 50°05' W 004°45'2 7.1
2017-Dec-19 15:28N 50°06' W 004°43'5 7.3
2017-Dec-19 14:49N 50°09' W 004°37'14 7.8
2017-Dec-19 12:59N 50°17' W 004°18'4 8.6
2017-Dec-19 12:28N 50°18' W 004°12'3 7.1
2017-Dec-19 12:00N 50°21' W 004°09'1 2.2
2017-Dec-19 11:27N 50°22' W 004°10'0 0.0
2017-Dec-19 11:00N 50°22' W 004°10'0 0.0
2017-Dec-19 10:30N 50°22' W 004°10'0 0.0
2017-Dec-19 10:00N 50°22' W 004°10'0 0.0
2017-Dec-19 09:30N 50°22' W 004°10'0 0.0
2017-Dec-19 09:00N 50°22' W 004°10'0 0.0
2017-Dec-19 08:30N 50°22' W 004°10'0 0.0
2017-Dec-19 08:00N 50°22' W 004°10'0 0.0
2017-Dec-19 07:30N 50°22' W 004°10'0 0.0
2017-Dec-19 07:00N 50°22' W 004°10'0 0.0
2017-Dec-19 06:30N 50°22' W 004°10'0 0.0
2017-Dec-19 06:00N 50°22' W 004°10'0 0.0
2017-Dec-19 05:30N 50°22' W 004°10'0 0.0
2017-Dec-19 05:00N 50°22' W 004°10'0 0.0
2017-Dec-19 04:30N 50°22' W 004°10'0 0.0
2017-Dec-19 04:00N 50°22' W 004°10'0 0.0
2017-Dec-19 03:30N 50°22' W 004°10'0 0.0
2017-Dec-19 03:00N 50°22' W 004°10'0 0.0
2017-Dec-19 02:30N 50°22' W 004°10'0 0.0
2017-Dec-19 02:00N 50°22' W 004°10'0 0.0
2017-Dec-19 01:30N 50°22' W 004°10'0 0.0
2017-Dec-19 00:54N 50°22' W 004°10'0 0.0
2017-Dec-19 00:30N 50°22' W 004°10'0 0.0
2017-Dec-19 00:00N 50°22' W 004°10'0 0.0
2017-Dec-18 23:30N 50°22' W 004°10'0 0.0
2017-Dec-18 23:00N 50°22' W 004°10'0 0.0
2017-Dec-18 22:30N 50°22' W 004°10'0 0.0
2017-Dec-18 22:00N 50°22' W 004°10'0 0.0
2017-Dec-18 21:30N 50°22' W 004°10'0 0.0
2017-Dec-18 21:00N 50°22' W 004°10'0 0.0
2017-Dec-18 20:30N 50°22' W 004°10'0 0.0
2017-Dec-18 20:00N 50°22' W 004°10'0 0.0
2017-Dec-18 19:30N 50°22' W 004°10'0 0.3
2017-Dec-18 19:00N 50°22' W 004°10'0 0.0
2017-Dec-18 18:30N 50°22' W 004°10'0 0.0
2017-Dec-18 18:00N 50°22' W 004°10'0 0.0
2017-Dec-18 17:30N 50°22' W 004°10'0 0.1
2017-Dec-18 17:00N 50°22' W 004°10'1 1.0
2017-Dec-18 16:29N 50°22' W 004°11'0 0.0
2017-Dec-18 15:59N 50°22' W 004°11'0 0.0
2017-Dec-18 15:29N 50°22' W 004°11'0 0.0
2017-Dec-18 14:59N 50°22' W 004°11'0 0.0
2017-Dec-18 14:29N 50°22' W 004°11'0 0.0
2017-Dec-18 13:59N 50°22' W 004°11'0 0.0
2017-Dec-18 13:29N 50°22' W 004°11'0 0.0
2017-Dec-18 12:59N 50°22' W 004°11'0 0.0
2017-Dec-18 12:29N 50°22' W 004°11'0 0.0
2017-Dec-18 11:59N 50°22' W 004°11'0 0.0
2017-Dec-18 11:29N 50°22' W 004°11'0 0.0
2017-Dec-18 10:59N 50°22' W 004°11'0 0.0
2017-Dec-18 10:29N 50°22' W 004°11'0 0.0
2017-Dec-18 09:59N 50°22' W 004°11'0 0.0
2017-Dec-18 09:29N 50°22' W 004°11'0 0.0
2017-Dec-18 08:59N 50°22' W 004°11'0 0.0
2017-Dec-18 08:29N 50°22' W 004°11'0 0.0
2017-Dec-18 07:59N 50°22' W 004°11'  

Dump ship's entire track history